createdAt,value
2022-12-17T00:02:04.525Z,11.20
2022-12-17T00:04:50.710Z,11.10
2022-12-17T00:07:39.225Z,11.10
2022-12-17T00:10:26.257Z,11.00
2022-12-17T00:13:12.458Z,11.00
2022-12-17T00:15:58.970Z,11.00
2022-12-17T00:18:45.663Z,11.00
2022-12-17T00:21:32.124Z,11.00
2022-12-17T00:24:19.718Z,11.00
2022-12-17T00:27:05.847Z,11.00
2022-12-17T00:29:51.850Z,11.00
2022-12-17T00:32:38.314Z,11.00
2022-12-17T00:35:25.340Z,11.00
2022-12-17T00:38:11.340Z,11.10
2022-12-17T00:40:59.082Z,11.10
2022-12-17T00:43:45.215Z,11.10
2022-12-17T00:46:31.485Z,11.10
2022-12-17T00:49:17.639Z,11.10
2022-12-17T00:52:03.960Z,11.10
2022-12-17T00:54:50.131Z,11.10
2022-12-17T00:57:37.777Z,11.10
2022-12-17T01:00:25.358Z,11.10
2022-12-17T01:03:11.530Z,11.10
2022-12-17T01:05:57.876Z,11.10
2022-12-17T01:08:45.903Z,11.10
2022-12-17T01:11:32.043Z,11.10
2022-12-17T01:14:19.467Z,11.10
2022-12-17T01:17:02.062Z,11.00
2022-12-17T01:19:48.468Z,11.00
2022-12-17T01:22:34.549Z,11.00
2022-12-17T01:25:20.547Z,11.00
2022-12-17T01:28:08.236Z,11.00
2022-12-17T01:30:57.688Z,11.00
2022-12-17T01:33:43.857Z,11.00
2022-12-17T01:36:29.219Z,11.00
2022-12-17T01:39:15.736Z,11.00
2022-12-17T01:42:01.859Z,11.00
2022-12-17T01:45:11.571Z,11.00
2022-12-17T01:48:03.757Z,11.00
2022-12-17T01:50:53.803Z,11.00
2022-12-17T01:53:43.557Z,11.00
2022-12-17T01:56:30.953Z,11.00
2022-12-17T01:59:17.707Z,11.00
2022-12-17T02:02:03.816Z,11.00
2022-12-17T02:04:51.605Z,11.00
2022-12-17T02:07:53.707Z,11.00
2022-12-17T02:10:44.411Z,11.00
2022-12-17T02:13:35.451Z,11.00
2022-12-17T02:16:28.331Z,11.10
2022-12-17T02:19:19.216Z,11.10
2022-12-17T02:22:12.612Z,11.10
2022-12-17T02:25:06.846Z,11.10
2022-12-17T02:27:55.283Z,11.10
2022-12-17T02:30:42.071Z,11.10
2022-12-17T02:33:29.558Z,11.10
2022-12-17T02:36:22.040Z,11.10
2022-12-17T02:39:08.035Z,11.10
2022-12-17T02:42:00.077Z,11.10
2022-12-17T02:44:50.874Z,11.10
2022-12-17T02:47:39.086Z,11.10
2022-12-17T02:50:27.846Z,11.10
2022-12-17T02:53:32.779Z,11.20
2022-12-17T02:56:19.280Z,11.20
2022-12-17T02:59:04.698Z,11.20
2022-12-17T03:01:53.910Z,11.20
2022-12-17T03:04:40.107Z,11.30
2022-12-17T03:07:26.335Z,11.30
2022-12-17T03:10:12.514Z,11.30
2022-12-17T03:13:01.541Z,11.30
2022-12-17T03:15:47.814Z,11.30
2022-12-17T03:18:35.598Z,11.30
2022-12-17T03:21:21.663Z,11.40
2022-12-17T03:24:07.917Z,11.40
2022-12-17T03:26:54.063Z,11.40
2022-12-17T03:29:58.841Z,11.40
2022-12-17T03:32:45.017Z,11.40
2022-12-17T03:35:41.184Z,11.40
2022-12-17T03:38:28.037Z,11.40
2022-12-17T03:41:14.356Z,11.30
2022-12-17T03:44:00.612Z,11.40
2022-12-17T03:46:46.597Z,11.30
2022-12-17T03:49:33.058Z,11.30
2022-12-17T03:52:20.568Z,11.30
2022-12-17T03:55:06.878Z,11.30
2022-12-17T03:57:53.284Z,11.40
2022-12-17T04:00:39.642Z,11.40
2022-12-17T04:03:25.981Z,11.40
2022-12-17T04:06:12.360Z,11.40
2022-12-17T04:08:59.908Z,11.40
2022-12-17T04:11:47.263Z,11.30
2022-12-17T04:14:38.821Z,11.40
2022-12-17T04:17:25.283Z,11.40
2022-12-17T04:20:11.584Z,11.40
2022-12-17T04:22:57.758Z,11.50
2022-12-17T04:25:45.747Z,11.50
2022-12-17T04:28:31.871Z,11.50
2022-12-17T04:31:18.270Z,11.50
2022-12-17T04:34:04.597Z,11.60
2022-12-17T04:36:50.733Z,11.60
2022-12-17T04:39:37.164Z,11.60
2022-12-17T04:42:25.079Z,11.60
2022-12-17T04:45:11.155Z,11.60
2022-12-17T04:47:57.501Z,11.70
2022-12-17T04:50:43.663Z,11.60
2022-12-17T04:53:29.825Z,11.60
2022-12-17T04:56:16.016Z,11.70
2022-12-17T04:59:06.560Z,11.70
2022-12-17T05:01:53.880Z,11.70
2022-12-17T05:04:40.048Z,11.70
2022-12-17T05:07:26.097Z,11.70
2022-12-17T05:10:12.417Z,11.70
2022-12-17T05:12:57.711Z,11.70
2022-12-17T05:15:51.349Z,11.70
2022-12-17T05:18:39.199Z,11.70
2022-12-17T05:21:29.208Z,11.70
2022-12-17T05:24:32.783Z,11.70
2022-12-17T05:27:19.142Z,11.70
2022-12-17T05:30:05.407Z,11.70
2022-12-17T05:32:52.853Z,11.80
2022-12-17T05:35:39.264Z,11.80
2022-12-17T05:38:27.172Z,11.80
2022-12-17T05:41:15.664Z,11.80
2022-12-17T05:47:08.461Z,12.00
2022-12-17T05:50:15.018Z,12.10
2022-12-17T05:53:08.547Z,12.30
2022-12-17T05:55:55.509Z,12.40
2022-12-17T05:58:44.963Z,12.50
2022-12-17T06:01:31.663Z,12.50
2022-12-17T06:04:17.997Z,12.60
2022-12-17T06:07:05.685Z,12.70
2022-12-17T06:09:52.206Z,12.80
2022-12-17T06:12:38.295Z,12.90
2022-12-17T06:15:25.578Z,13.00
2022-12-17T06:18:16.656Z,13.10
2022-12-17T06:21:05.051Z,13.20
2022-12-17T06:23:53.080Z,13.30
2022-12-17T06:26:39.822Z,13.30
2022-12-17T06:29:26.484Z,13.40
2022-12-17T06:32:13.396Z,13.50
2022-12-17T06:34:59.842Z,13.60
2022-12-17T06:37:46.071Z,13.80
2022-12-17T06:40:40.438Z,13.90
2022-12-17T06:43:27.679Z,14.00
2022-12-17T06:46:14.457Z,14.20
2022-12-17T06:49:02.590Z,14.30
2022-12-17T06:52:05.660Z,14.50
2022-12-17T06:54:59.780Z,14.70
2022-12-17T06:57:50.530Z,14.90
2022-12-17T07:00:37.403Z,15.10
2022-12-17T07:03:24.150Z,15.20
2022-12-17T07:06:10.448Z,15.40
2022-12-17T07:08:56.678Z,15.70
2022-12-17T07:11:48.935Z,15.90
2022-12-17T07:14:36.602Z,16.30
2022-12-17T07:17:23.016Z,16.60
2022-12-17T07:20:11.898Z,17.00
2022-12-17T07:22:54.702Z,17.40
2022-12-17T07:25:45.803Z,17.80
2022-12-17T07:28:32.415Z,18.30
2022-12-17T07:31:20.332Z,18.70
2022-12-17T07:34:06.334Z,19.10
2022-12-17T07:36:52.926Z,19.30
2022-12-17T07:39:39.044Z,19.60
2022-12-17T07:42:25.362Z,19.80
2022-12-17T07:45:11.587Z,20.00
2022-12-17T07:48:04.752Z,20.20
2022-12-17T07:51:09.262Z,20.20
2022-12-17T07:53:55.712Z,20.30
2022-12-17T07:56:41.990Z,20.40
2022-12-17T07:59:28.428Z,20.50
2022-12-17T08:02:15.010Z,20.70
2022-12-17T08:05:03.888Z,20.70
2022-12-17T08:07:50.297Z,20.80
2022-12-17T08:10:36.623Z,20.90
2022-12-17T08:13:27.946Z,20.90
2022-12-17T08:16:14.499Z,20.80
2022-12-17T08:19:00.913Z,20.80
2022-12-17T08:21:48.773Z,20.90
2022-12-17T08:24:35.137Z,20.90
2022-12-17T08:27:21.501Z,21.00
2022-12-17T08:30:27.420Z,21.20
2022-12-17T08:33:13.502Z,21.20
2022-12-17T08:35:59.527Z,21.30
2022-12-17T08:38:47.006Z,21.50
2022-12-17T08:41:33.397Z,21.60
2022-12-17T08:44:19.631Z,21.90
2022-12-17T08:47:05.644Z,22.10
2022-12-17T08:49:52.107Z,22.30
2022-12-17T08:52:38.430Z,22.50
2022-12-17T08:55:29.610Z,22.80
2022-12-17T08:58:17.270Z,23.00
2022-12-17T09:01:04.092Z,23.20
2022-12-17T09:03:50.393Z,23.30
2022-12-17T09:06:39.293Z,23.30
2022-12-17T09:09:26.607Z,23.40
2022-12-17T09:12:14.558Z,23.30
2022-12-17T09:15:00.975Z,23.30
2022-12-17T09:17:47.466Z,23.40
2022-12-17T09:20:35.529Z,23.70
2022-12-17T09:23:21.980Z,24.00
2022-12-17T09:26:12.219Z,24.30
2022-12-17T09:29:01.203Z,24.60
2022-12-17T09:31:48.848Z,24.70
2022-12-17T09:34:35.915Z,24.70
2022-12-17T09:37:23.523Z,24.90
2022-12-17T09:40:09.863Z,25.00
2022-12-17T09:43:05.099Z,25.20
2022-12-17T09:46:01.168Z,25.50
2022-12-17T09:48:54.829Z,25.80
2022-12-17T09:51:43.647Z,26.10
2022-12-17T09:54:38.795Z,26.40
2022-12-17T09:57:29.673Z,26.70
2022-12-17T10:00:16.212Z,27.00
2022-12-17T10:03:04.644Z,27.20
2022-12-17T10:05:51.688Z,27.30
2022-12-17T10:08:40.039Z,27.40
2022-12-17T10:11:39.407Z,27.50
2022-12-17T10:14:33.496Z,27.50
2022-12-17T10:17:21.249Z,27.40
2022-12-17T10:20:13.691Z,27.10
2022-12-17T10:23:04.638Z,27.10
2022-12-17T10:25:51.551Z,27.30
2022-12-17T10:28:39.284Z,27.60
2022-12-17T10:31:39.568Z,27.90
2022-12-17T10:34:27.734Z,28.00
2022-12-17T10:37:15.208Z,27.90
2022-12-17T10:40:01.571Z,27.70
2022-12-17T10:42:49.296Z,27.30
2022-12-17T10:45:43.916Z,26.80
2022-12-17T10:48:37.770Z,26.30
2022-12-17T10:51:25.585Z,25.70
2022-12-17T10:54:13.198Z,25.30
2022-12-17T10:56:59.226Z,24.80
2022-12-17T10:59:50.472Z,24.40
2022-12-17T11:02:46.991Z,24.10
2022-12-17T11:05:35.584Z,23.80
2022-12-17T11:08:22.957Z,23.50
2022-12-17T11:11:11.154Z,23.30
2022-12-17T11:14:03.874Z,23.20
2022-12-17T11:16:55.691Z,23.10
2022-12-17T11:19:55.054Z,22.90
2022-12-17T11:22:47.750Z,22.90
2022-12-17T11:25:47.623Z,22.80
2022-12-17T11:28:40.652Z,22.70
2022-12-17T11:31:48.721Z,22.70
2022-12-17T11:35:06.249Z,22.50
2022-12-17T11:37:57.663Z,22.50
2022-12-17T11:40:53.078Z,22.40
2022-12-17T11:43:48.058Z,22.30
2022-12-17T11:46:46.517Z,22.30
2022-12-17T11:49:42.347Z,22.30
2022-12-17T11:52:36.118Z,22.30
2022-12-17T11:55:34.416Z,22.20
2022-12-17T11:58:23.624Z,22.20
2022-12-17T12:01:20.537Z,22.30
2022-12-17T12:04:15.880Z,22.30
2022-12-17T12:07:13.580Z,22.20
2022-12-17T12:10:05.857Z,22.30
2022-12-17T12:13:04.168Z,22.20
2022-12-17T12:15:58.570Z,22.20
2022-12-17T12:18:54.819Z,22.20
2022-12-17T12:21:52.989Z,22.20
2022-12-17T12:25:12.162Z,22.20
2022-12-17T12:28:25.292Z,22.20
2022-12-17T12:31:20.069Z,22.20
2022-12-17T12:34:12.961Z,22.20
2022-12-17T12:37:01.337Z,22.20
2022-12-17T12:39:57.320Z,22.20
2022-12-17T12:43:33.487Z,22.10
2022-12-17T12:46:35.657Z,22.10
2022-12-17T12:49:39.435Z,22.10
2022-12-17T12:52:29.018Z,22.10
2022-12-17T12:55:18.649Z,22.10
2022-12-17T12:58:19.357Z,22.10
2022-12-17T13:01:18.990Z,22.10
2022-12-17T13:04:11.644Z,22.00
2022-12-17T13:06:46.859Z,22.00
2022-12-17T13:09:35.583Z,21.90
2022-12-17T13:12:23.680Z,21.90
2022-12-17T13:15:01.518Z,21.80
2022-12-17T13:17:36.206Z,21.80
2022-12-17T13:20:27.219Z,21.70
2022-12-17T13:23:18.272Z,21.60
2022-12-17T13:25:47.986Z,21.50
2022-12-17T13:28:31.109Z,21.50
2022-12-17T13:31:08.089Z,21.50
2022-12-17T13:33:47.525Z,21.40
2022-12-17T13:36:25.654Z,21.40
2022-12-17T13:39:04.396Z,21.30
2022-12-17T13:41:57.045Z,21.30
2022-12-17T13:44:29.735Z,21.30
2022-12-17T13:46:59.223Z,21.20
2022-12-17T13:49:30.091Z,21.10
2022-12-17T13:52:11.714Z,21.10
2022-12-17T13:54:42.284Z,21.00
2022-12-17T13:57:12.324Z,21.00
2022-12-17T13:59:41.803Z,20.90
2022-12-17T14:02:26.900Z,20.90
2022-12-17T14:04:59.097Z,20.90
2022-12-17T14:07:35.224Z,20.80
2022-12-17T14:10:07.294Z,20.80
2022-12-17T14:12:35.779Z,20.70
2022-12-17T14:15:09.663Z,20.60
2022-12-17T14:17:42.720Z,20.60
2022-12-17T14:20:15.680Z,20.50
2022-12-17T14:22:51.588Z,20.50
2022-12-17T14:25:24.295Z,20.40
2022-12-17T14:27:57.656Z,20.40
2022-12-17T14:30:46.273Z,20.40
2022-12-17T14:33:34.173Z,20.30
2022-12-17T14:36:06.649Z,20.20
2022-12-17T14:38:38.930Z,20.10
2022-12-17T14:41:27.859Z,20.10
2022-12-17T14:43:59.356Z,20.00
2022-12-17T14:46:29.434Z,19.90
2022-12-17T14:49:02.817Z,19.90
2022-12-17T14:51:36.417Z,19.80
2022-12-17T14:54:22.345Z,19.70
2022-12-17T14:56:54.815Z,19.70
2022-12-17T14:59:26.870Z,19.60
2022-12-17T15:02:02.936Z,19.50
2022-12-17T15:04:38.042Z,19.40
2022-12-17T15:07:14.682Z,19.50
2022-12-17T15:09:47.311Z,19.40
2022-12-17T15:12:18.901Z,19.30
2022-12-17T15:14:48.450Z,19.20
2022-12-17T15:17:18.029Z,19.10
2022-12-17T15:19:55.794Z,19.00
2022-12-17T15:22:43.828Z,18.90
2022-12-17T15:25:14.427Z,18.70
2022-12-17T15:27:44.926Z,18.60
2022-12-17T15:30:16.388Z,18.50
2022-12-17T15:32:46.706Z,18.40
2022-12-17T15:35:16.120Z,18.30
2022-12-17T15:37:44.987Z,18.20
2022-12-17T15:40:14.352Z,18.10
2022-12-17T15:43:06.087Z,18.00
2022-12-17T15:45:35.677Z,17.90
2022-12-17T15:48:04.529Z,17.80
2022-12-17T15:50:34.123Z,17.70
2022-12-17T15:53:03.409Z,17.60
2022-12-17T15:55:32.369Z,17.50
2022-12-17T15:58:02.826Z,17.50
2022-12-17T16:00:32.206Z,17.40
2022-12-17T16:03:01.118Z,17.30
2022-12-17T16:05:30.256Z,17.30
2022-12-17T16:08:02.710Z,17.20
2022-12-17T16:10:32.209Z,17.20
2022-12-17T16:13:02.658Z,17.10
2022-12-17T16:16:02.245Z,17.10
2022-12-17T16:18:32.976Z,17.00
2022-12-17T16:21:05.722Z,16.90
2022-12-17T16:23:35.040Z,16.90
2022-12-17T16:26:06.091Z,16.80
2022-12-17T16:28:37.706Z,16.70
2022-12-17T16:31:09.065Z,16.70
2022-12-17T16:33:40.257Z,16.60
2022-12-17T16:36:12.802Z,16.60
2022-12-17T16:38:45.938Z,16.50
2022-12-17T16:41:15.854Z,16.50
2022-12-17T16:43:46.508Z,16.40
2022-12-17T16:46:31.048Z,16.40
2022-12-17T16:49:04.033Z,16.30
2022-12-17T16:51:33.105Z,16.30
2022-12-17T16:54:08.057Z,16.20
2022-12-17T16:56:40.244Z,16.20
2022-12-17T16:59:12.347Z,16.10
2022-12-17T17:01:44.997Z,16.00
2022-12-17T17:04:16.361Z,15.90
2022-12-17T17:06:47.188Z,15.90
2022-12-17T17:09:17.717Z,15.80
2022-12-17T17:11:51.392Z,15.70
2022-12-17T17:14:22.582Z,15.70
2022-12-17T17:17:11.279Z,15.70
2022-12-17T17:19:40.112Z,15.60
2022-12-17T17:22:09.228Z,15.50
2022-12-17T17:24:38.049Z,15.50
2022-12-17T17:27:06.877Z,15.50
2022-12-17T17:29:37.340Z,15.40
2022-12-17T17:32:10.883Z,15.40
2022-12-17T17:34:40.658Z,15.30
2022-12-17T17:37:09.770Z,15.30
2022-12-17T17:39:38.812Z,15.30
2022-12-17T17:42:07.962Z,15.20
2022-12-17T17:44:38.694Z,15.20
2022-12-17T17:47:07.821Z,15.10
2022-12-17T17:49:36.779Z,15.10
2022-12-17T17:52:10.239Z,15.00
2022-12-17T17:54:41.145Z,15.00
2022-12-17T17:57:10.680Z,14.90
2022-12-17T17:59:41.263Z,14.80
2022-12-17T18:02:12.314Z,14.80
2022-12-17T18:04:41.533Z,14.70
2022-12-17T18:07:28.072Z,14.70
2022-12-17T18:09:59.923Z,14.60
2022-12-17T18:12:57.959Z,14.50
2022-12-17T18:15:28.357Z,14.50
2022-12-17T18:17:57.442Z,14.40
2022-12-17T18:20:26.354Z,14.40
2022-12-17T18:22:55.305Z,14.30
2022-12-17T18:25:24.519Z,14.30
2022-12-17T18:27:54.216Z,14.30
2022-12-17T18:30:24.628Z,14.30
2022-12-17T18:32:56.253Z,14.20
2022-12-17T18:35:27.665Z,14.20
2022-12-17T18:37:56.844Z,14.20
2022-12-17T18:40:30.135Z,14.10
2022-12-17T18:43:21.986Z,14.10
2022-12-17T18:45:50.998Z,14.00
2022-12-17T18:48:21.872Z,14.00
2022-12-17T18:50:50.806Z,14.00
2022-12-17T18:53:19.837Z,13.90
2022-12-17T18:55:48.765Z,13.90
2022-12-17T18:58:17.862Z,13.90
2022-12-17T19:00:47.234Z,13.80
2022-12-17T19:03:16.203Z,13.80
2022-12-17T19:05:54.062Z,13.70
2022-12-17T19:08:23.669Z,13.70
2022-12-17T19:11:13.552Z,13.70
2022-12-17T19:13:42.403Z,13.60
2022-12-17T19:16:13.811Z,13.60
2022-12-17T19:18:43.027Z,13.50
2022-12-17T19:21:16.281Z,13.50
2022-12-17T19:23:45.248Z,13.50
2022-12-17T19:26:15.540Z,13.50
2022-12-17T19:29:03.460Z,13.50
2022-12-17T19:31:33.742Z,13.40
2022-12-17T19:34:04.200Z,13.40
2022-12-17T19:36:36.130Z,13.40
2022-12-17T19:39:07.451Z,13.40
2022-12-17T19:41:36.862Z,13.40
2022-12-17T19:44:07.331Z,13.30
2022-12-17T19:46:37.946Z,13.30
2022-12-17T19:49:07.822Z,13.20
2022-12-17T19:51:39.072Z,13.20
2022-12-17T19:54:09.352Z,13.00
2022-12-17T19:56:38.444Z,13.00
2022-12-17T19:59:09.430Z,13.20
2022-12-17T20:01:41.507Z,13.20
2022-12-17T20:04:12.313Z,13.20
2022-12-17T20:06:43.309Z,13.20
2022-12-17T20:09:12.816Z,13.20
2022-12-17T20:11:42.553Z,13.20
2022-12-17T20:14:15.934Z,13.20
2022-12-17T20:16:46.604Z,13.20
2022-12-17T20:19:18.344Z,13.10
2022-12-17T20:21:49.219Z,13.10
2022-12-17T20:24:19.073Z,13.00
2022-12-17T20:26:50.225Z,13.00
2022-12-17T20:29:19.894Z,12.90
2022-12-17T20:31:49.971Z,12.80
2022-12-17T20:34:26.207Z,12.80
2022-12-17T20:37:14.855Z,12.70
2022-12-17T20:39:43.821Z,12.70
2022-12-17T20:42:13.386Z,12.70
2022-12-17T20:44:43.103Z,12.70
2022-12-17T20:47:12.098Z,12.60
2022-12-17T20:49:41.078Z,12.60
2022-12-17T20:52:10.167Z,12.60
2022-12-17T20:54:40.454Z,12.60
2022-12-17T20:57:09.456Z,12.60
2022-12-17T20:59:38.423Z,12.70
2022-12-17T21:02:07.561Z,12.60
2022-12-17T21:04:36.680Z,12.60
2022-12-17T21:07:05.594Z,12.60
2022-12-17T21:09:34.709Z,12.60
2022-12-17T21:12:05.145Z,12.60
2022-12-17T21:14:37.795Z,12.60
2022-12-17T21:17:07.122Z,12.60
2022-12-17T21:19:36.530Z,12.60
2022-12-17T21:22:06.066Z,12.60
2022-12-17T21:24:35.456Z,12.50
2022-12-17T21:27:11.148Z,12.40
2022-12-17T21:29:43.472Z,12.40
2022-12-17T21:32:12.304Z,12.30
2022-12-17T21:34:41.468Z,12.30
2022-12-17T21:37:11.443Z,12.30
2022-12-17T21:39:40.431Z,12.20
2022-12-17T21:42:28.399Z,12.20
2022-12-17T21:45:16.115Z,12.20
2022-12-17T21:47:45.415Z,12.10
2022-12-17T21:50:14.462Z,12.00
2022-12-17T21:52:43.294Z,12.00
2022-12-17T21:55:12.136Z,11.90
2022-12-17T21:57:42.703Z,11.80
2022-12-17T22:00:12.888Z,11.80
2022-12-17T22:02:42.031Z,11.70
2022-12-17T22:05:16.239Z,11.70
2022-12-17T22:07:48.260Z,11.60
2022-12-17T22:10:38.450Z,11.60
2022-12-17T22:13:27.668Z,11.60
2022-12-17T22:15:57.297Z,11.60
2022-12-17T22:18:27.762Z,11.60
2022-12-17T22:21:00.469Z,11.60
2022-12-17T22:23:29.994Z,11.60
2022-12-17T22:26:19.604Z,11.60
2022-12-17T22:28:50.372Z,11.60
2022-12-17T22:31:38.459Z,11.60
2022-12-17T22:34:55.185Z,11.60
2022-12-17T22:38:40.294Z,11.60
2022-12-17T22:44:31.021Z,11.60
2022-12-17T22:44:41.941Z,11.50
2022-12-17T22:45:44.685Z,11.50
2022-12-17T22:48:15.133Z,11.50
2022-12-17T22:50:54.779Z,11.40
2022-12-17T22:53:53.115Z,11.50
2022-12-17T22:56:36.372Z,11.50
2022-12-17T22:59:17.261Z,11.50
2022-12-17T23:01:48.027Z,11.60
2022-12-17T23:04:17.987Z,11.60
2022-12-17T23:06:47.672Z,11.60
2022-12-17T23:09:19.435Z,11.70
2022-12-17T23:11:49.607Z,11.70
2022-12-17T23:14:19.242Z,11.70
2022-12-17T23:16:49.741Z,11.70
2022-12-17T23:19:18.635Z,11.80
2022-12-17T23:21:47.568Z,11.80
2022-12-17T23:24:16.461Z,11.80
2022-12-17T23:26:45.359Z,11.80
2022-12-17T23:29:19.415Z,11.90
2022-12-17T23:31:50.345Z,11.90
2022-12-17T23:34:19.170Z,12.00
2022-12-17T23:36:48.185Z,12.00
2022-12-17T23:39:17.191Z,12.00
2022-12-17T23:41:46.228Z,12.00
2022-12-17T23:44:15.052Z,12.00
2022-12-17T23:46:44.085Z,12.00
2022-12-17T23:49:14.512Z,12.00
2022-12-17T23:51:43.529Z,12.00
2022-12-17T23:54:12.528Z,12.00
2022-12-17T23:56:41.614Z,12.00
2022-12-17T23:59:11.831Z,12.00
